• Join FlightAware (Why Join?)
  • Login
  • US Flag 
07:02AM EDT


 

Airport Tracker/Info


-or-


 

Live Flight TrackerFlight Track Log ✈ SWA2054 ✈ 05-May-2014 ✈ KBWI - KBOS

Flight Track Log - Related Links

Times and Time Zones

All times are in EDT time to prevent confusion due to time zone crossing. See the SWA2054 flight status page for this flight to view local times or setup timezone preferences in your user account.

Time Position Orientation Groundspeed Altitude Reporting Facility
EDT Latitude Longitude Course Direction KTS MPH feet Rate Location/Type
07:09AM 39.1667 -76.7333 180° South 176 203 2,000  Level Potomac TRACON
07:10AM 39.1167 -76.7333 180° South 269 310 4,300 2,580 Climbing Potomac TRACON
07:12AM 39.1286 -76.5094 86° East 285 328 10,300 2,400 Climbing Washington Center
07:13AM 39.1381 -76.3836 84° East 319 367 11,900 1,860 Climbing Washington Center
07:14AM 39.1492 -76.2419 84° East 362 417 14,100 2,220 Climbing Washington Center
07:15AM 39.1708 -76.0922 79° East 401 461 16,400 2,340 Climbing Washington Center
07:16AM 39.2378 -75.9775 53° Northeast 386 444 18,800 1,980 Climbing Washington Center
07:17AM 39.3089 -75.8678 50° Northeast 391 450 20,400 1,740 Climbing Washington Center
07:18AM 39.3842 -75.7500 50° Northeast 403 464 22,300 1,800 Climbing Washington Center
07:19AM 39.4594 -75.6344 50° Northeast 423 487 24,000 1,500 Climbing Washington Center
07:20AM 39.5386 -75.5081 51° Northeast 429 494 25,300 1,320 Climbing Washington Center
07:21AM 39.6197 -75.3814 50° Northeast 441 507 26,800 1,620 Climbing Washington Center
07:22AM 39.7006 -75.2544 50° Northeast 448 516 28,600 1,500 Climbing Washington Center
07:23AM 39.7794 -75.1297 51° Northeast 448 516 29,800 1,260 Climbing Washington Center
07:24AM 39.8739 -74.9742 52° Northeast 454 522 31,400 1,500 Climbing New York Center
07:25AM 39.9553 -74.8519 49° Northeast 454 522 33,200 1,200 Climbing New York Center
07:26AM 40.0300 -74.7422 48° Northeast 454 522 33,800 840 Climbing New York Center
07:27AM 40.1114 -74.6167 50° Northeast 454 522 34,900 840 Climbing New York Center
07:28AM 40.1925 -74.4908 50° Northeast 449 517 35,600 -120 Climbing New York Center
07:29AM 40.2736 -74.3647 50° Northeast 449 517 34,700 -1,020 Descending New York Center
07:30AM 40.3544 -74.2408 49° Northeast 449 517 33,700 -1,080 Descending New York Center
07:31AM 40.4308 -74.1164 51° Northeast 443 510 32,600 -1,620 Descending New York Center
07:32AM 40.5114 -73.9950 49° Northeast 443 510 30,500 -1,920 Descending New York Center
07:34AM 40.6403 -73.7867 51° Northeast 461 531 27,700 -1,320 Descending Boston Center
07:35AM 40.7375 -73.6336 50° Northeast 477 549 27,000 -360 Descending Boston Center
07:36AM 40.8264 -73.4922 50° Northeast 470 541 27,000  Level Boston Center
07:37AM 40.9094 -73.3647 49° Northeast 463 533 27,000  Level Boston Center
07:38AM 40.9892 -73.2497 47° Northeast 459 528 27,000 -540 Level Boston Center
07:39AM 41.0747 -73.1211 49° Northeast 463 533 26,000 -1,860 Descending Boston Center
07:40AM 41.1561 -72.9992 48° Northeast 445 512 23,300 -2,040 Descending Boston Center
07:41AM 41.2231 -72.8731 55° Northeast 426 490 21,900 -1,140 Descending Boston Center
07:42AM 41.2775 -72.7114 66° East 425 489 21,000 -480 Descending Boston Center
07:43AM 41.3278 -72.5733 64° Northeast 416 479 21,000  Level Boston Center
07:44AM 41.3767 -72.4353 65° Northeast 415 478 21,000  Level Boston Center
07:45AM 41.4250 -72.2961 65° Northeast 414 476 21,000  Level Boston Center
07:46AM 41.4742 -72.1575 65° Northeast 414 476 21,000  Level Boston Center
07:47AM 41.5231 -72.0175 65° Northeast 414 476 21,000  Level Boston Center
07:48AM 41.5719 -71.8733 66° East 415 478 21,000  Level Boston Center
07:49AM 41.6214 -71.7342 65° Northeast 416 479 21,000 -720 Level Boston Center
07:50AM 41.6681 -71.5950 66° East 415 478 19,600 -2,220 Descending Boston Center
07:51AM 41.7222 -71.4372 65° Northeast 395 455 16,500 -2,700 Descending Boston Center
07:52AM 41.7747 -71.3133 60° Northeast 388 447 14,100 -2,400 Descending Boston Center
07:53AM 41.8256 -71.1939 60° Northeast 373 429 11,600 -1,500 Descending Boston Center
07:54AM 41.8714 -71.0875 60° Northeast 324 373 11,100 -600 Descending Boston Center
07:55AM 41.9156 -70.9819 61° Northeast 302 348 10,400 -780 Descending Boston Center
07:56AM 41.9603 -70.8986 54° Northeast 276 318 9,600 -900 Descending Boston Center
07:57AM 41.9936 -70.8358 54° Northeast 239 275 8,700 -1,140 Descending Boston Center
07:58AM 42.0358 -70.7706 49° Northeast 233 268 7,400 -1,260 Descending Boston Center
07:59AM 42.0806 -70.7106 45° Northeast 231 266 6,200 -780 Descending Boston Center
08:00AM 42.1214 -70.6586 43° Northeast 213 245 5,900 -180 Descending Boston Center
08:01AM 42.1578 -70.6278 32° Northeast 186 214 5,900 -540 Level Boston Center
08:02AM 42.1719 -70.6878 288° West 182 209 4,900 -1,020 Descending Boston Center
08:03AM 42.1833 -70.7661 281° West 181 208 3,900 -960 Descending Boston Center
08:04AM 42.2181 -70.8086 318° Northwest 175 201 3,000 -540 Descending Boston Center
08:05AM 42.2494 -70.8528 314° West 162 186 2,800 -480 Descending Boston Center
08:06AM 42.2800 -70.8931 316° Northwest 158 182 2,100 -780 Descending Boston Center
08:07AM 42.3092 -70.9317 316° Northwest 153 176 1,300 -780 Descending Boston Center
08:08AM 42.3347 -70.9633 318° Northwest 144 166 600 -600 Descending Boston Center
08:09AM 42.3606 -70.9978 315° West 132 152 100 -540 Descending Boston Center
08:11AM 42.3500 -71.0000 North  Level FlightAware Approximate